sensor_id;sensor_type;location;lat;lon;timestamp;temperature;humidity
7530;DHT22;3806;52.270;10.544;2023-02-26T00:00:08;1.70;98.10
7530;DHT22;3806;52.270;10.544;2023-02-26T00:02:36;1.80;98.30
7530;DHT22;3806;52.270;10.544;2023-02-26T00:05:03;1.80;98.30
7530;DHT22;3806;52.270;10.544;2023-02-26T00:07:29;1.80;98.40
7530;DHT22;3806;52.270;10.544;2023-02-26T00:09:54;1.70;98.60
7530;DHT22;3806;52.270;10.544;2023-02-26T00:12:20;1.80;98.70
7530;DHT22;3806;52.270;10.544;2023-02-26T00:14:47;1.80;99.00
7530;DHT22;3806;52.270;10.544;2023-02-26T00:19:41;1.80;99.00
7530;DHT22;3806;52.270;10.544;2023-02-26T00:22:06;1.90;99.00
7530;DHT22;3806;52.270;10.544;2023-02-26T00:24:32;1.90;98.90
7530;DHT22;3806;52.270;10.544;2023-02-26T00:26:58;1.90;98.80
7530;DHT22;3806;52.270;10.544;2023-02-26T00:29:24;1.90;98.80
7530;DHT22;3806;52.270;10.544;2023-02-26T00:31:50;1.80;98.80
7530;DHT22;3806;52.270;10.544;2023-02-26T00:34:16;1.80;98.90
7530;DHT22;3806;52.270;10.544;2023-02-26T00:36:53;1.80;99.00
7530;DHT22;3806;52.270;10.544;2023-02-26T00:42:11;1.70;99.10
7530;DHT22;3806;52.270;10.544;2023-02-26T00:44:37;1.70;99.20
7530;DHT22;3806;52.270;10.544;2023-02-26T00:47:17;1.70;99.30
7530;DHT22;3806;52.270;10.544;2023-02-26T00:50:16;1.60;99.50
7530;DHT22;3806;52.270;10.544;2023-02-26T00:52:47;1.60;99.70
7530;DHT22;3806;52.270;10.544;2023-02-26T00:55:14;1.70;99.80
7530;DHT22;3806;52.270;10.544;2023-02-26T00:57:39;1.60;99.90
7530;DHT22;3806;52.270;10.544;2023-02-26T01:00:06;1.60;99.90
7530;DHT22;3806;52.270;10.544;2023-02-26T01:02:34;1.60;99.90
7530;DHT22;3806;52.270;10.544;2023-02-26T01:05:03;1.60;99.90
7530;DHT22;3806;52.270;10.544;2023-02-26T01:07:32;1.60;99.90
7530;DHT22;3806;52.270;10.544;2023-02-26T01:10:01;1.60;99.90
7530;DHT22;3806;52.270;10.544;2023-02-26T01:12:27;1.60;99.90
7530;DHT22;3806;52.270;10.544;2023-02-26T01:14:53;1.70;99.90
7530;DHT22;3806;52.270;10.544;2023-02-26T01:17:42;1.70;99.90
7530;DHT22;3806;52.270;10.544;2023-02-26T01:20:17;1.80;99.90
7530;DHT22;3806;52.270;10.544;2023-02-26T01:23:06;1.80;99.90
7530;DHT22;3806;52.270;10.544;2023-02-26T01:26:00;1.90;99.90
7530;DHT22;3806;52.270;10.544;2023-02-26T01:28:29;1.80;99.90
7530;DHT22;3806;52.270;10.544;2023-02-26T01:31:00;1.80;99.90
7530;DHT22;3806;52.270;10.544;2023-02-26T01:33:40;1.80;99.90
7530;DHT22;3806;52.270;10.544;2023-02-26T01:36:16;1.80;99.90
7530;DHT22;3806;52.270;10.544;2023-02-26T01:42:14;1.80;99.90
7530;DHT22;3806;52.270;10.544;2023-02-26T01:44:54;1.80;99.90
7530;DHT22;3806;52.270;10.544;2023-02-26T01:47:38;1.80;99.90
7530;DHT22;3806;52.270;10.544;2023-02-26T01:50:20;1.80;99.90
7530;DHT22;3806;52.270;10.544;2023-02-26T01:55:13;1.80;99.90
7530;DHT22;3806;52.270;10.544;2023-02-26T01:57:38;1.80;99.90
7530;DHT22;3806;52.270;10.544;2023-02-26T02:00:04;1.80;99.90
7530;DHT22;3806;52.270;10.544;2023-02-26T02:02:33;1.80;99.90
7530;DHT22;3806;52.270;10.544;2023-02-26T02:05:03;1.80;99.90
7530;DHT22;3806;52.270;10.544;2023-02-26T02:07:31;1.80;99.90
7530;DHT22;3806;52.270;10.544;2023-02-26T02:09:57;1.90;99.90
7530;DHT22;3806;52.270;10.544;2023-02-26T02:15:27;1.90;99.90
7530;DHT22;3806;52.270;10.544;2023-02-26T02:21:33;1.90;99.90
7530;DHT22;3806;52.270;10.544;2023-02-26T02:24:34;1.80;99.90
7530;DHT22;3806;52.270;10.544;2023-02-26T02:33:02;1.90;99.90
7530;DHT22;3806;52.270;10.544;2023-02-26T02:35:35;1.90;99.90
7530;DHT22;3806;52.270;10.544;2023-02-26T02:38:22;1.90;99.90
7530;DHT22;3806;52.270;10.544;2023-02-26T02:40:53;1.80;99.90
7530;DHT22;3806;52.270;10.544;2023-02-26T02:43:31;1.70;99.90
7530;DHT22;3806;52.270;10.544;2023-02-26T02:46:10;1.70;99.90
7530;DHT22;3806;52.270;10.544;2023-02-26T02:48:46;1.70;99.90
7530;DHT22;3806;52.270;10.544;2023-02-26T02:51:28;1.70;99.90
7530;DHT22;3806;52.270;10.544;2023-02-26T02:57:22;1.70;99.90
7530;DHT22;3806;52.270;10.544;2023-02-26T02:59:57;1.70;99.90
7530;DHT22;3806;52.270;10.544;2023-02-26T03:02:56;1.60;99.90
7530;DHT22;3806;52.270;10.544;2023-02-26T03:05:21;1.60;99.90
7530;DHT22;3806;52.270;10.544;2023-02-26T03:07:55;1.50;99.90
7530;DHT22;3806;52.270;10.544;2023-02-26T03:10:21;1.50;99.90
7530;DHT22;3806;52.270;10.544;2023-02-26T03:12:47;1.60;99.90
7530;DHT22;3806;52.270;10.544;2023-02-26T03:15:13;1.60;99.90
7530;DHT22;3806;52.270;10.544;2023-02-26T03:18:07;1.50;99.90
7530;DHT22;3806;52.270;10.544;2023-02-26T03:20:37;1.50;99.90
7530;DHT22;3806;52.270;10.544;2023-02-26T03:23:13;1.50;99.90
7530;DHT22;3806;52.270;10.544;2023-02-26T03:25:44;1.50;99.90
7530;DHT22;3806;52.270;10.544;2023-02-26T03:28:21;1.50;99.90
7530;DHT22;3806;52.270;10.544;2023-02-26T03:30:57;1.40;99.90
7530;DHT22;3806;52.270;10.544;2023-02-26T03:33:51;1.40;99.90
7530;DHT22;3806;52.270;10.544;2023-02-26T03:36:33;1.40;99.90
7530;DHT22;3806;52.270;10.544;2023-02-26T03:39:26;1.50;99.90
7530;DHT22;3806;52.270;10.544;2023-02-26T03:44:30;1.50;99.90
7530;DHT22;3806;52.270;10.544;2023-02-26T03:47:00;1.50;99.90
7530;DHT22;3806;52.270;10.544;2023-02-26T03:49:40;1.50;99.90
7530;DHT22;3806;52.270;10.544;2023-02-26T03:52:07;1.50;99.90
7530;DHT22;3806;52.270;10.544;2023-02-26T03:54:38;1.50;99.90
7530;DHT22;3806;52.270;10.544;2023-02-26T03:57:09;1.40;99.90
7530;DHT22;3806;52.270;10.544;2023-02-26T03:59:34;1.50;99.90
7530;DHT22;3806;52.270;10.544;2023-02-26T04:02:10;1.50;99.90
7530;DHT22;3806;52.270;10.544;2023-02-26T04:04:47;1.50;99.90
7530;DHT22;3806;52.270;10.544;2023-02-26T04:07:15;1.60;99.90
7530;DHT22;3806;52.270;10.544;2023-02-26T04:09:43;1.50;99.90
7530;DHT22;3806;52.270;10.544;2023-02-26T04:12:08;1.60;99.90
7530;DHT22;3806;52.270;10.544;2023-02-26T04:14:34;1.60;99.90
7530;DHT22;3806;52.270;10.544;2023-02-26T04:16:59;1.70;99.90
7530;DHT22;3806;52.270;10.544;2023-02-26T04:19:25;1.70;99.90
7530;DHT22;3806;52.270;10.544;2023-02-26T04:21:50;1.70;99.90
7530;DHT22;3806;52.270;10.544;2023-02-26T04:24:16;1.70;99.90
7530;DHT22;3806;52.270;10.544;2023-02-26T04:26:41;1.80;99.90
7530;DHT22;3806;52.270;10.544;2023-02-26T04:29:07;1.80;99.90
7530;DHT22;3806;52.270;10.544;2023-02-26T04:31:32;1.90;99.90
7530;DHT22;3806;52.270;10.544;2023-02-26T04:33:58;1.90;99.90
7530;DHT22;3806;52.270;10.544;2023-02-26T04:36:24;1.90;99.90
7530;DHT22;3806;52.270;10.544;2023-02-26T04:38:49;1.90;99.90
7530;DHT22;3806;52.270;10.544;2023-02-26T04:41:15;1.90;99.90
7530;DHT22;3806;52.270;10.544;2023-02-26T04:43:40;2.00;99.90
7530;DHT22;3806;52.270;10.544;2023-02-26T04:46:06;2.00;99.90
7530;DHT22;3806;52.270;10.544;2023-02-26T04:48:31;2.00;99.90
7530;DHT22;3806;52.270;10.544;2023-02-26T04:50:57;2.00;99.90
7530;DHT22;3806;52.270;10.544;2023-02-26T04:53:22;2.00;99.90
7530;DHT22;3806;52.270;10.544;2023-02-26T04:55:48;2.00;99.90
7530;DHT22;3806;52.270;10.544;2023-02-26T04:58:14;2.00;99.90
7530;DHT22;3806;52.270;10.544;2023-02-26T05:00:39;2.00;99.90
7530;DHT22;3806;52.270;10.544;2023-02-26T05:03:05;2.00;99.90
7530;DHT22;3806;52.270;10.544;2023-02-26T05:05:31;2.00;99.90
7530;DHT22;3806;52.270;10.544;2023-02-26T05:07:57;2.00;99.90
7530;DHT22;3806;52.270;10.544;2023-02-26T05:10:23;2.00;99.90
7530;DHT22;3806;52.270;10.544;2023-02-26T05:12:49;2.00;99.90
7530;DHT22;3806;52.270;10.544;2023-02-26T05:15:14;2.00;99.90
7530;DHT22;3806;52.270;10.544;2023-02-26T05:17:40;2.00;99.90
7530;DHT22;3806;52.270;10.544;2023-02-26T05:20:06;2.00;99.90
7530;DHT22;3806;52.270;10.544;2023-02-26T05:22:36;2.00;99.90
7530;DHT22;3806;52.270;10.544;2023-02-26T05:25:03;2.10;99.90
7530;DHT22;3806;52.270;10.544;2023-02-26T05:27:29;2.00;99.90
7530;DHT22;3806;52.270;10.544;2023-02-26T05:29:56;2.00;99.90
7530;DHT22;3806;52.270;10.544;2023-02-26T05:32:22;1.90;99.90
7530;DHT22;3806;52.270;10.544;2023-02-26T05:34:48;1.90;99.90
7530;DHT22;3806;52.270;10.544;2023-02-26T05:37:13;1.90;99.90
7530;DHT22;3806;52.270;10.544;2023-02-26T05:39:39;1.80;99.90
7530;DHT22;3806;52.270;10.544;2023-02-26T05:42:06;1.80;99.90
7530;DHT22;3806;52.270;10.544;2023-02-26T05:44:32;1.70;99.90
7530;DHT22;3806;52.270;10.544;2023-02-26T05:46:57;1.60;99.90
7530;DHT22;3806;52.270;10.544;2023-02-26T05:49:23;1.60;99.90
7530;DHT22;3806;52.270;10.544;2023-02-26T05:51:48;1.50;99.90
7530;DHT22;3806;52.270;10.544;2023-02-26T05:54:14;1.50;99.90
7530;DHT22;3806;52.270;10.544;2023-02-26T05:56:39;1.50;99.90
7530;DHT22;3806;52.270;10.544;2023-02-26T05:59:05;1.40;99.90
7530;DHT22;3806;52.270;10.544;2023-02-26T06:01:31;1.40;99.90
7530;DHT22;3806;52.270;10.544;2023-02-26T06:03:57;1.30;99.90
7530;DHT22;3806;52.270;10.544;2023-02-26T06:06:22;1.30;99.90
7530;DHT22;3806;52.270;10.544;2023-02-26T06:08:49;1.30;99.90
7530;DHT22;3806;52.270;10.544;2023-02-26T06:11:15;1.30;99.90
7530;DHT22;3806;52.270;10.544;2023-02-26T06:13:40;1.30;99.90
7530;DHT22;3806;52.270;10.544;2023-02-26T06:16:06;1.30;99.90
7530;DHT22;3806;52.270;10.544;2023-02-26T06:18:31;1.30;99.90
7530;DHT22;3806;52.270;10.544;2023-02-26T06:21:01;1.30;99.90
7530;DHT22;3806;52.270;10.544;2023-02-26T06:23:27;1.30;99.90
7530;DHT22;3806;52.270;10.544;2023-02-26T06:25:53;1.30;99.90
7530;DHT22;3806;52.270;10.544;2023-02-26T06:28:18;1.30;99.90
7530;DHT22;3806;52.270;10.544;2023-02-26T06:30:45;1.30;99.90
7530;DHT22;3806;52.270;10.544;2023-02-26T06:33:11;1.30;99.90
7530;DHT22;3806;52.270;10.544;2023-02-26T06:35:36;1.30;99.90
7530;DHT22;3806;52.270;10.544;2023-02-26T06:38:02;1.40;99.90
7530;DHT22;3806;52.270;10.544;2023-02-26T06:40:28;1.40;99.90
7530;DHT22;3806;52.270;10.544;2023-02-26T06:42:55;1.50;99.90
7530;DHT22;3806;52.270;10.544;2023-02-26T06:45:20;1.50;99.90
7530;DHT22;3806;52.270;10.544;2023-02-26T06:47:46;1.50;99.90
7530;DHT22;3806;52.270;10.544;2023-02-26T06:50:11;1.70;99.90
7530;DHT22;3806;52.270;10.544;2023-02-26T06:52:37;1.70;99.90
7530;DHT22;3806;52.270;10.544;2023-02-26T06:55:03;1.80;99.90
7530;DHT22;3806;52.270;10.544;2023-02-26T06:57:29;1.80;99.90
7530;DHT22;3806;52.270;10.544;2023-02-26T06:59:54;1.90;99.90
7530;DHT22;3806;52.270;10.544;2023-02-26T07:02:21;2.00;99.90
7530;DHT22;3806;52.270;10.544;2023-02-26T07:04:47;2.10;99.80
7530;DHT22;3806;52.270;10.544;2023-02-26T07:07:13;2.10;99.20
7530;DHT22;3806;52.270;10.544;2023-02-26T07:09:39;2.20;99.00
7530;DHT22;3806;52.270;10.544;2023-02-26T07:12:04;2.30;98.40
7530;DHT22;3806;52.270;10.544;2023-02-26T07:14:32;2.30;97.90
7530;DHT22;3806;52.270;10.544;2023-02-26T07:16:57;2.40;97.30
7530;DHT22;3806;52.270;10.544;2023-02-26T07:19:23;2.40;97.20
7530;DHT22;3806;52.270;10.544;2023-02-26T07:21:48;2.40;96.90
7530;DHT22;3806;52.270;10.544;2023-02-26T07:24:14;2.50;96.80
7530;DHT22;3806;52.270;10.544;2023-02-26T07:26:39;2.60;96.70
7530;DHT22;3806;52.270;10.544;2023-02-26T07:29:05;2.60;95.90
7530;DHT22;3806;52.270;10.544;2023-02-26T07:31:30;2.60;95.30
7530;DHT22;3806;52.270;10.544;2023-02-26T07:33:56;2.70;95.20
7530;DHT22;3806;52.270;10.544;2023-02-26T07:36:21;2.70;95.10
7530;DHT22;3806;52.270;10.544;2023-02-26T07:38:47;2.70;94.30
7530;DHT22;3806;52.270;10.544;2023-02-26T07:41:12;2.70;94.30
7530;DHT22;3806;52.270;10.544;2023-02-26T07:43:38;2.80;94.00
7530;DHT22;3806;52.270;10.544;2023-02-26T07:46:04;2.90;93.30
7530;DHT22;3806;52.270;10.544;2023-02-26T07:48:29;3.00;92.90
7530;DHT22;3806;52.270;10.544;2023-02-26T07:50:56;3.10;92.70
7530;DHT22;3806;52.270;10.544;2023-02-26T07:53:22;3.10;92.40
7530;DHT22;3806;52.270;10.544;2023-02-26T07:55:48;3.20;91.90
7530;DHT22;3806;52.270;10.544;2023-02-26T07:58:13;3.40;91.40
7530;DHT22;3806;52.270;10.544;2023-02-26T08:00:39;3.60;90.80
7530;DHT22;3806;52.270;10.544;2023-02-26T08:03:05;3.70;90.20
7530;DHT22;3806;52.270;10.544;2023-02-26T08:05:30;4.20;89.30
7530;DHT22;3806;52.270;10.544;2023-02-26T08:07:56;5.20;85.80
7530;DHT22;3806;52.270;10.544;2023-02-26T08:10:21;6.80;79.80
7530;DHT22;3806;52.270;10.544;2023-02-26T08:12:47;7.40;71.50
7530;DHT22;3806;52.270;10.544;2023-02-26T08:15:12;7.60;65.80
7530;DHT22;3806;52.270;10.544;2023-02-26T08:17:39;7.60;65.90
7530;DHT22;3806;52.270;10.544;2023-02-26T08:20:06;8.90;66.00
7530;DHT22;3806;52.270;10.544;2023-02-26T08:22:32;11.40;55.70
7530;DHT22;3806;52.270;10.544;2023-02-26T08:24:58;14.10;45.90
7530;DHT22;3806;52.270;10.544;2023-02-26T08:27:24;16.70;38.80
7530;DHT22;3806;52.270;10.544;2023-02-26T08:29:49;18.80;34.10
7530;DHT22;3806;52.270;10.544;2023-02-26T08:32:16;20.50;27.60
7530;DHT22;3806;52.270;10.544;2023-02-26T08:34:43;21.70;25.50
7530;DHT22;3806;52.270;10.544;2023-02-26T08:37:09;22.60;23.50
7530;DHT22;3806;52.270;10.544;2023-02-26T08:39:36;23.20;22.50
7530;DHT22;3806;52.270;10.544;2023-02-26T08:42:03;23.80;22.00
7530;DHT22;3806;52.270;10.544;2023-02-26T08:44:29;24.30;23.20
7530;DHT22;3806;52.270;10.544;2023-02-26T08:46:55;24.90;22.80
7530;DHT22;3806;52.270;10.544;2023-02-26T08:49:20;25.40;20.80
7530;DHT22;3806;52.270;10.544;2023-02-26T08:51:46;25.90;20.20
7530;DHT22;3806;52.270;10.544;2023-02-26T08:54:11;25.80;19.70
7530;DHT22;3806;52.270;10.544;2023-02-26T08:56:37;25.70;20.00
7530;DHT22;3806;52.270;10.544;2023-02-26T08:59:03;25.70;19.80
7530;DHT22;3806;52.270;10.544;2023-02-26T09:01:29;25.70;19.90
7530;DHT22;3806;52.270;10.544;2023-02-26T09:03:54;25.70;19.00
7530;DHT22;3806;52.270;10.544;2023-02-26T09:06:20;25.20;18.90
7530;DHT22;3806;52.270;10.544;2023-02-26T09:08:46;24.80;18.70
7530;DHT22;3806;52.270;10.544;2023-02-26T09:11:11;24.80;19.10
7530;DHT22;3806;52.270;10.544;2023-02-26T09:13:37;24.60;18.90
7530;DHT22;3806;52.270;10.544;2023-02-26T09:16:02;24.40;19.00
7530;DHT22;3806;52.270;10.544;2023-02-26T09:18:28;24.60;19.50
7530;DHT22;3806;52.270;10.544;2023-02-26T09:20:53;25.20;19.40
7530;DHT22;3806;52.270;10.544;2023-02-26T09:23:19;25.70;18.90
7530;DHT22;3806;52.270;10.544;2023-02-26T09:25:45;25.60;18.00
7530;DHT22;3806;52.270;10.544;2023-02-26T09:28:10;25.00;18.60
7530;DHT22;3806;52.270;10.544;2023-02-26T09:30:36;24.90;18.90
7530;DHT22;3806;52.270;10.544;2023-02-26T09:33:01;25.70;18.70
7530;DHT22;3806;52.270;10.544;2023-02-26T09:35:27;26.70;18.30
7530;DHT22;3806;52.270;10.544;2023-02-26T09:37:53;27.90;17.40
7530;DHT22;3806;52.270;10.544;2023-02-26T09:40:36;28.90;17.10
7530;DHT22;3806;52.270;10.544;2023-02-26T09:43:33;29.50;16.10
7530;DHT22;3806;52.270;10.544;2023-02-26T09:46:08;29.40;15.70
7530;DHT22;3806;52.270;10.544;2023-02-26T09:48:37;27.40;16.10
7530;DHT22;3806;52.270;10.544;2023-02-26T09:51:03;26.50;16.80
7530;DHT22;3806;52.270;10.544;2023-02-26T09:53:36;26.80;16.70
7530;DHT22;3806;52.270;10.544;2023-02-26T09:56:09;27.50;16.20
7530;DHT22;3806;52.270;10.544;2023-02-26T09:58:39;28.10;15.80
7530;DHT22;3806;52.270;10.544;2023-02-26T10:01:13;28.30;16.00
7530;DHT22;3806;52.270;10.544;2023-02-26T10:07:00;28.90;15.70
7530;DHT22;3806;52.270;10.544;2023-02-26T10:11:59;28.40;15.30
7530;DHT22;3806;52.270;10.544;2023-02-26T10:14:33;29.10;14.90
7530;DHT22;3806;52.270;10.544;2023-02-26T10:17:07;29.90;14.80
7530;DHT22;3806;52.270;10.544;2023-02-26T10:19:42;30.70;14.20
7530;DHT22;3806;52.270;10.544;2023-02-26T10:22:19;30.70;14.00
7530;DHT22;3806;52.270;10.544;2023-02-26T10:25:19;30.50;14.10
7530;DHT22;3806;52.270;10.544;2023-02-26T10:28:10;30.60;14.00
7530;DHT22;3806;52.270;10.544;2023-02-26T10:30:54;30.20;13.60
7530;DHT22;3806;52.270;10.544;2023-02-26T10:33:34;28.80;14.30
7530;DHT22;3806;52.270;10.544;2023-02-26T10:36:18;28.20;14.50
7530;DHT22;3806;52.270;10.544;2023-02-26T10:38:53;28.10;14.60
7530;DHT22;3806;52.270;10.544;2023-02-26T10:41:24;27.90;14.90
7530;DHT22;3806;52.270;10.544;2023-02-26T10:44:08;27.60;14.90
7530;DHT22;3806;52.270;10.544;2023-02-26T10:46:43;28.00;15.10
7530;DHT22;3806;52.270;10.544;2023-02-26T10:49:42;28.70;15.10
7530;DHT22;3806;52.270;10.544;2023-02-26T10:52:23;29.30;14.50
7530;DHT22;3806;52.270;10.544;2023-02-26T10:55:05;29.70;14.40
7530;DHT22;3806;52.270;10.544;2023-02-26T10:57:37;30.20;13.90
7530;DHT22;3806;52.270;10.544;2023-02-26T11:00:05;30.00;13.60
7530;DHT22;3806;52.270;10.544;2023-02-26T11:02:38;28.50;14.00
7530;DHT22;3806;52.270;10.544;2023-02-26T11:05:06;28.20;14.40
7530;DHT22;3806;52.270;10.544;2023-02-26T11:07:35;28.20;14.40
7530;DHT22;3806;52.270;10.544;2023-02-26T11:10:05;29.00;14.20
7530;DHT22;3806;52.270;10.544;2023-02-26T11:12:37;29.70;13.70
7530;DHT22;3806;52.270;10.544;2023-02-26T11:15:02;29.70;12.80
7530;DHT22;3806;52.270;10.544;2023-02-26T11:17:29;29.50;13.40
7530;DHT22;3806;52.270;10.544;2023-02-26T11:22:56;30.30;12.70
7530;DHT22;3806;52.270;10.544;2023-02-26T11:25:27;30.90;12.90
7530;DHT22;3806;52.270;10.544;2023-02-26T11:28:04;31.10;12.30
7530;DHT22;3806;52.270;10.544;2023-02-26T11:30:35;30.70;12.40
7530;DHT22;3806;52.270;10.544;2023-02-26T11:33:19;30.50;12.90
7530;DHT22;3806;52.270;10.544;2023-02-26T11:35:45;29.60;12.30
7530;DHT22;3806;52.270;10.544;2023-02-26T11:38:18;28.30;13.10
7530;DHT22;3806;52.270;10.544;2023-02-26T11:40:47;25.80;13.50
7530;DHT22;3806;52.270;10.544;2023-02-26T11:43:16;24.70;14.50
7530;DHT22;3806;52.270;10.544;2023-02-26T11:45:45;24.50;14.70
7530;DHT22;3806;52.270;10.544;2023-02-26T11:51:02;24.00;14.90
7530;DHT22;3806;52.270;10.544;2023-02-26T11:53:35;23.70;14.90
7530;DHT22;3806;52.270;10.544;2023-02-26T11:56:08;21.80;14.90
7530;DHT22;3806;52.270;10.544;2023-02-26T11:58:37;19.90;15.80
7530;DHT22;3806;52.270;10.544;2023-02-26T12:01:06;18.20;16.60
7530;DHT22;3806;52.270;10.544;2023-02-26T12:03:35;16.70;17.20
7530;DHT22;3806;52.270;10.544;2023-02-26T12:06:04;15.30;18.10
7530;DHT22;3806;52.270;10.544;2023-02-26T12:08:36;14.50;19.20
7530;DHT22;3806;52.270;10.544;2023-02-26T12:11:29;13.50;19.60
7530;DHT22;3806;52.270;10.544;2023-02-26T12:14:25;12.60;20.30
7530;DHT22;3806;52.270;10.544;2023-02-26T12:17:20;12.00;21.20
7530;DHT22;3806;52.270;10.544;2023-02-26T12:19:57;11.50;21.80
7530;DHT22;3806;52.270;10.544;2023-02-26T12:22:48;11.10;22.70
7530;DHT22;3806;52.270;10.544;2023-02-26T12:36:30;9.30;24.40
7530;DHT22;3806;52.270;10.544;2023-02-26T12:39:31;9.10;24.70
7530;DHT22;3806;52.270;10.544;2023-02-26T12:42:16;8.90;25.00
7530;DHT22;3806;52.270;10.544;2023-02-26T12:45:05;8.80;25.00
7530;DHT22;3806;52.270;10.544;2023-02-26T12:50:38;8.50;25.10
7530;DHT22;3806;52.270;10.544;2023-02-26T12:53:36;8.60;25.30
7530;DHT22;3806;52.270;10.544;2023-02-26T12:59:14;9.30;24.50
7530;DHT22;3806;52.270;10.544;2023-02-26T13:04:41;9.30;23.90
7530;DHT22;3806;52.270;10.544;2023-02-26T13:10:02;9.50;24.60
7530;DHT22;3806;52.270;10.544;2023-02-26T13:15:38;9.70;24.20
7530;DHT22;3806;52.270;10.544;2023-02-26T13:21:07;9.50;24.30
7530;DHT22;3806;52.270;10.544;2023-02-26T13:23:48;9.60;24.30
7530;DHT22;3806;52.270;10.544;2023-02-26T13:26:15;9.70;24.30
7530;DHT22;3806;52.270;10.544;2023-02-26T13:31:48;10.00;23.90
7530;DHT22;3806;52.270;10.544;2023-02-26T13:34:19;10.30;23.60
7530;DHT22;3806;52.270;10.544;2023-02-26T13:36:47;10.60;23.40
7530;DHT22;3806;52.270;10.544;2023-02-26T13:39:32;10.80;23.10
7530;DHT22;3806;52.270;10.544;2023-02-26T13:42:13;10.90;23.10
7530;DHT22;3806;52.270;10.544;2023-02-26T13:56:22;11.10;22.80
7530;DHT22;3806;52.270;10.544;2023-02-26T14:06:58;11.30;22.90
7530;DHT22;3806;52.270;10.544;2023-02-26T14:14:36;10.90;22.80
7530;DHT22;3806;52.270;10.544;2023-02-26T14:27:39;10.50;23.20
7530;DHT22;3806;52.270;10.544;2023-02-26T14:35:30;10.00;23.90
7530;DHT22;3806;52.270;10.544;2023-02-26T14:38:17;9.80;24.70
7530;DHT22;3806;52.270;10.544;2023-02-26T14:40:49;9.60;25.40
7530;DHT22;3806;52.270;10.544;2023-02-26T14:43:25;9.30;25.90
7530;DHT22;3806;52.270;10.544;2023-02-26T14:45:55;8.90;26.00
7530;DHT22;3806;52.270;10.544;2023-02-26T14:48:22;8.70;26.20
7530;DHT22;3806;52.270;10.544;2023-02-26T14:51:20;8.40;26.90
7530;DHT22;3806;52.270;10.544;2023-02-26T14:59:54;8.00;27.60
7530;DHT22;3806;52.270;10.544;2023-02-26T15:02:51;7.90;28.50
7530;DHT22;3806;52.270;10.544;2023-02-26T15:05:31;7.70;28.30
7530;DHT22;3806;52.270;10.544;2023-02-26T15:08:14;7.50;28.90
7530;DHT22;3806;52.270;10.544;2023-02-26T15:11:14;7.20;29.10
7530;DHT22;3806;52.270;10.544;2023-02-26T15:14:31;7.10;29.60
7530;DHT22;3806;52.270;10.544;2023-02-26T15:17:31;6.90;30.00
7530;DHT22;3806;52.270;10.544;2023-02-26T15:20:21;6.80;29.70
7530;DHT22;3806;52.270;10.544;2023-02-26T15:22:59;6.80;29.90
7530;DHT22;3806;52.270;10.544;2023-02-26T15:25:34;6.70;30.30
7530;DHT22;3806;52.270;10.544;2023-02-26T15:28:05;6.70;30.40
7530;DHT22;3806;52.270;10.544;2023-02-26T15:30:32;6.60;30.20
7530;DHT22;3806;52.270;10.544;2023-02-26T15:33:02;6.60;30.30
7530;DHT22;3806;52.270;10.544;2023-02-26T15:35:30;6.60;30.50
7530;DHT22;3806;52.270;10.544;2023-02-26T15:37:59;6.50;30.10
7530;DHT22;3806;52.270;10.544;2023-02-26T15:40:31;6.30;29.70
7530;DHT22;3806;52.270;10.544;2023-02-26T15:42:58;6.20;29.70
7530;DHT22;3806;52.270;10.544;2023-02-26T15:45:34;6.20;30.90
7530;DHT22;3806;52.270;10.544;2023-02-26T15:48:04;6.10;30.20
7530;DHT22;3806;52.270;10.544;2023-02-26T15:50:35;5.90;30.00
7530;DHT22;3806;52.270;10.544;2023-02-26T15:53:03;5.90;30.10
7530;DHT22;3806;52.270;10.544;2023-02-26T15:55:36;5.90;30.50
7530;DHT22;3806;52.270;10.544;2023-02-26T15:58:05;5.90;31.20
7530;DHT22;3806;52.270;10.544;2023-02-26T16:00:34;6.00;31.60
7530;DHT22;3806;52.270;10.544;2023-02-26T16:03:00;6.00;32.20
7530;DHT22;3806;52.270;10.544;2023-02-26T16:05:26;6.00;32.00
7530;DHT22;3806;52.270;10.544;2023-02-26T16:07:52;6.00;31.80
7530;DHT22;3806;52.270;10.544;2023-02-26T16:10:37;5.90;32.40
7530;DHT22;3806;52.270;10.544;2023-02-26T16:13:05;5.80;32.90
7530;DHT22;3806;52.270;10.544;2023-02-26T16:15:35;5.60;33.10
7530;DHT22;3806;52.270;10.544;2023-02-26T16:18:05;5.70;33.50
7530;DHT22;3806;52.270;10.544;2023-02-26T16:20:40;5.70;33.90
7530;DHT22;3806;52.270;10.544;2023-02-26T16:23:12;5.70;34.00
7530;DHT22;3806;52.270;10.544;2023-02-26T16:25:48;5.70;34.20
7530;DHT22;3806;52.270;10.544;2023-02-26T16:28:18;5.60;34.40
7530;DHT22;3806;52.270;10.544;2023-02-26T16:30:47;5.60;35.10
7530;DHT22;3806;52.270;10.544;2023-02-26T16:33:15;5.50;35.80
7530;DHT22;3806;52.270;10.544;2023-02-26T16:35:47;5.40;36.20
7530;DHT22;3806;52.270;10.544;2023-02-26T16:38:27;5.20;36.70
7530;DHT22;3806;52.270;10.544;2023-02-26T16:40:58;5.20;37.10
7530;DHT22;3806;52.270;10.544;2023-02-26T16:46:17;5.00;37.80
7530;DHT22;3806;52.270;10.544;2023-02-26T16:48:49;5.00;38.10
7530;DHT22;3806;52.270;10.544;2023-02-26T16:51:19;5.00;38.40
7530;DHT22;3806;52.270;10.544;2023-02-26T16:53:54;4.90;38.60
7530;DHT22;3806;52.270;10.544;2023-02-26T16:56:26;4.90;38.80
7530;DHT22;3806;52.270;10.544;2023-02-26T16:59:03;4.90;39.10
7530;DHT22;3806;52.270;10.544;2023-02-26T17:01:35;4.90;39.50
7530;DHT22;3806;52.270;10.544;2023-02-26T17:04:05;4.90;39.80
7530;DHT22;3806;52.270;10.544;2023-02-26T17:06:31;4.90;39.90
7530;DHT22;3806;52.270;10.544;2023-02-26T17:09:01;4.80;40.10
7530;DHT22;3806;52.270;10.544;2023-02-26T17:11:33;4.80;40.30
7530;DHT22;3806;52.270;10.544;2023-02-26T17:14:24;4.80;40.60
7530;DHT22;3806;52.270;10.544;2023-02-26T17:16:51;4.60;41.10
7530;DHT22;3806;52.270;10.544;2023-02-26T17:19:18;4.60;41.80
7530;DHT22;3806;52.270;10.544;2023-02-26T17:21:47;4.50;42.40
7530;DHT22;3806;52.270;10.544;2023-02-26T17:24:18;4.50;43.10
7530;DHT22;3806;52.270;10.544;2023-02-26T17:26:46;4.40;43.90
7530;DHT22;3806;52.270;10.544;2023-02-26T17:29:26;4.40;44.80
7530;DHT22;3806;52.270;10.544;2023-02-26T17:31:54;4.30;45.60
7530;DHT22;3806;52.270;10.544;2023-02-26T17:34:20;4.30;46.50
7530;DHT22;3806;52.270;10.544;2023-02-26T17:36:47;4.30;47.50
7530;DHT22;3806;52.270;10.544;2023-02-26T17:39:12;4.30;48.30
7530;DHT22;3806;52.270;10.544;2023-02-26T17:41:42;4.20;49.00
7530;DHT22;3806;52.270;10.544;2023-02-26T17:44:08;4.20;50.00
7530;DHT22;3806;52.270;10.544;2023-02-26T17:46:33;4.10;50.90
7530;DHT22;3806;52.270;10.544;2023-02-26T17:48:59;4.10;52.00
7530;DHT22;3806;52.270;10.544;2023-02-26T17:51:24;4.10;53.30
7530;DHT22;3806;52.270;10.544;2023-02-26T17:53:52;3.90;54.00
7530;DHT22;3806;52.270;10.544;2023-02-26T17:56:26;4.00;55.00
7530;DHT22;3806;52.270;10.544;2023-02-26T17:58:53;3.90;55.90
7530;DHT22;3806;52.270;10.544;2023-02-26T18:01:20;3.90;56.80
7530;DHT22;3806;52.270;10.544;2023-02-26T18:03:48;3.90;57.60
7530;DHT22;3806;52.270;10.544;2023-02-26T18:06:15;3.70;58.10
7530;DHT22;3806;52.270;10.544;2023-02-26T18:08:41;3.90;59.00
7530;DHT22;3806;52.270;10.544;2023-02-26T18:11:07;3.90;59.70
7530;DHT22;3806;52.270;10.544;2023-02-26T18:13:36;3.80;61.40
7530;DHT22;3806;52.270;10.544;2023-02-26T18:16:03;3.80;63.00
7530;DHT22;3806;52.270;10.544;2023-02-26T18:18:30;3.80;63.40
7530;DHT22;3806;52.270;10.544;2023-02-26T18:20:56;3.70;64.20
7530;DHT22;3806;52.270;10.544;2023-02-26T18:23:22;3.80;66.20